Time;durP1;ratioP1;P1;durP2;ratioP2;P2;SDS_P1;SDS_P2;PMS_P1;PMS_P2;Temp;Humidity;BMP_temperature;BMP_pressure;BME280_temperature;BME280_humidity;BME280_pressure;Samples;Min_cycle;Max_cycle;Signal;HPM_P1;HPM_P2
2022/01/11 00:00:08;;;;;;;21.7;13.5;;;;;;;;;;;;;
2022/01/11 00:02:44;;;;;;;23;13.3;;;;;;;;;;;;;
2022/01/11 00:05:21;;;;;;;22;12.8;;;;;;;;;;;;;
2022/01/11 00:07:44;;;;;;;26.9;15.2;;;;;;;;;;;;;
2022/01/11 00:10:24;;;;;;;27;15.2;;;;;;;;;;;;;
2022/01/11 00:12:39;;;;;;;27.3;15.6;;;;;;;;;;;;;
2022/01/11 00:15:06;;;;;;;23.1;14.3;;;;;;;;;;;;;
2022/01/11 00:17:31;;;;;;;21.2;13.1;;;;;;;;;;;;;
2022/01/11 00:19:57;;;;;;;21.5;13.8;;;;;;;;;;;;;
2022/01/11 00:22:28;;;;;;;21.7;13.4;;;;;;;;;;;;;
2022/01/11 00:24:47;;;;;;;19.6;12.6;;;;;;;;;;;;;
2022/01/11 00:27:13;;;;;;;20.5;12.6;;;;;;;;;;;;;
2022/01/11 00:29:40;;;;;;;22.8;12.9;;;;;;;;;;;;;
2022/01/11 00:32:07;;;;;;;23;13.6;;;;;;;;;;;;;
2022/01/11 00:34:38;;;;;;;21.8;13.7;;;;;;;;;;;;;
2022/01/11 00:36:53;;;;;;;20.1;13;;;;;;;;;;;;;
2022/01/11 00:39:18;;;;;;;20.6;12.4;;;;;;;;;;;;;
2022/01/11 00:41:44;;;;;;;18.9;11.9;;;;;;;;;;;;;
2022/01/11 00:44:10;;;;;;;19.7;13;;;;;;;;;;;;;
2022/01/11 00:46:35;;;;;;;21.7;13.8;;;;;;;;;;;;;
2022/01/11 00:49:02;;;;;;;24;14.6;;;;;;;;;;;;;
2022/01/11 00:51:26;;;;;;;24.2;14.8;;;;;;;;;;;;;
2022/01/11 00:53:52;;;;;;;24.7;14.2;;;;;;;;;;;;;
2022/01/11 00:56:17;;;;;;;23.7;14.3;;;;;;;;;;;;;
2022/01/11 00:58:44;;;;;;;23.7;14.4;;;;;;;;;;;;;
2022/01/11 01:01:09;;;;;;;23.4;15.1;;;;;;;;;;;;;
2022/01/11 01:03:34;;;;;;;25.4;14.9;;;;;;;;;;;;;
2022/01/11 01:05:59;;;;;;;24.8;15;;;;;;;;;;;;;
2022/01/11 01:08:25;;;;;;;26.3;14.6;;;;;;;;;;;;;
2022/01/11 01:10:50;;;;;;;26.4;15;;;;;;;;;;;;;
2022/01/11 01:13:17;;;;;;;24.9;14.9;;;;;;;;;;;;;
2022/01/11 01:15:42;;;;;;;23.6;15;;;;;;;;;;;;;
2022/01/11 01:18:10;;;;;;;25.9;14.8;;;;;;;;;;;;;
2022/01/11 01:20:33;;;;;;;20.2;12.6;;;;;;;;;;;;;
2022/01/11 01:23:00;;;;;;;20.5;12.4;;;;;;;;;;;;;
2022/01/11 01:25:25;;;;;;;18.4;11;;;;;;;;;;;;;
2022/01/11 01:27:50;;;;;;;19.1;11.9;;;;;;;;;;;;;
2022/01/11 01:30:16;;;;;;;17.9;11.7;;;;;;;;;;;;;
2022/01/11 01:32:41;;;;;;;18.7;12;;;;;;;;;;;;;
2022/01/11 01:35:06;;;;;;;19.1;11.6;;;;;;;;;;;;;
2022/01/11 01:37:33;;;;;;;20.2;12.6;;;;;;;;;;;;;
2022/01/11 01:39:58;;;;;;;20.1;12.4;;;;;;;;;;;;;
2022/01/11 01:42:26;;;;;;;23.1;14.3;;;;;;;;;;;;;
2022/01/11 01:44:49;;;;;;;24.5;14.3;;;;;;;;;;;;;
2022/01/11 01:47:14;;;;;;;25.5;15.8;;;;;;;;;;;;;
2022/01/11 01:49:39;;;;;;;27.4;15.7;;;;;;;;;;;;;
2022/01/11 01:52:05;;;;;;;25.9;15.5;;;;;;;;;;;;;
2022/01/11 01:54:30;;;;;;;27;15.8;;;;;;;;;;;;;
2022/01/11 01:56:56;;;;;;;25.9;16;;;;;;;;;;;;;
2022/01/11 01:59:21;;;;;;;27.2;15.8;;;;;;;;;;;;;
2022/01/11 02:01:48;;;;;;;26.8;15.6;;;;;;;;;;;;;
2022/01/11 02:04:14;;;;;;;29.9;16.5;;;;;;;;;;;;;
2022/01/11 02:06:39;;;;;;;26.6;15.7;;;;;;;;;;;;;
2022/01/11 02:09:05;;;;;;;28;16.3;;;;;;;;;;;;;
2022/01/11 02:11:31;;;;;;;29.5;17.5;;;;;;;;;;;;;
2022/01/11 02:13:56;;;;;;;29.7;17.4;;;;;;;;;;;;;
2022/01/11 02:16:25;;;;;;;28.9;16.4;;;;;;;;;;;;;
2022/01/11 02:18:51;;;;;;;25.7;15.5;;;;;;;;;;;;;
2022/01/11 02:21:16;;;;;;;28.8;16;;;;;;;;;;;;;
2022/01/11 02:23:41;;;;;;;25.4;15.3;;;;;;;;;;;;;
2022/01/11 02:26:08;;;;;;;29.3;16.4;;;;;;;;;;;;;
2022/01/11 02:28:33;;;;;;;28.3;16.2;;;;;;;;;;;;;
2022/01/11 02:30:59;;;;;;;28.6;16.2;;;;;;;;;;;;;
2022/01/11 02:33:32;;;;;;;26.3;15.1;;;;;;;;;;;;;
2022/01/11 02:35:49;;;;;;;27.3;15.7;;;;;;;;;;;;;
2022/01/11 02:38:15;;;;;;;25.3;15.3;;;;;;;;;;;;;
2022/01/11 02:40:40;;;;;;;26.1;15.4;;;;;;;;;;;;;
2022/01/11 02:43:05;;;;;;;25.6;15.8;;;;;;;;;;;;;
2022/01/11 02:45:30;;;;;;;28.5;16.5;;;;;;;;;;;;;
2022/01/11 02:47:57;;;;;;;26.4;16.1;;;;;;;;;;;;;
2022/01/11 02:50:24;;;;;;;29.2;16.9;;;;;;;;;;;;;
2022/01/11 02:52:49;;;;;;;28.9;16.4;;;;;;;;;;;;;
2022/01/11 02:55:14;;;;;;;27.3;16;;;;;;;;;;;;;
2022/01/11 02:57:40;;;;;;;26.8;16;;;;;;;;;;;;;
2022/01/11 03:00:05;;;;;;;27.6;15.7;;;;;;;;;;;;;
2022/01/11 03:02:33;;;;;;;28.9;16.1;;;;;;;;;;;;;
2022/01/11 03:04:58;;;;;;;28.6;16.2;;;;;;;;;;;;;
2022/01/11 03:07:23;;;;;;;28.1;16.4;;;;;;;;;;;;;
2022/01/11 03:10:00;;;;;;;32;17.2;;;;;;;;;;;;;
2022/01/11 03:12:14;;;;;;;27.7;16.5;;;;;;;;;;;;;
2022/01/11 03:14:41;;;;;;;32.4;17.3;;;;;;;;;;;;;
2022/01/11 03:17:07;;;;;;;30.9;16.9;;;;;;;;;;;;;
2022/01/11 03:19:33;;;;;;;30;16.9;;;;;;;;;;;;;
2022/01/11 03:21:58;;;;;;;31.4;17.8;;;;;;;;;;;;;
2022/01/11 03:24:24;;;;;;;29.2;17.2;;;;;;;;;;;;;
2022/01/11 03:26:49;;;;;;;31.2;17.1;;;;;;;;;;;;;
2022/01/11 03:29:16;;;;;;;26;14.7;;;;;;;;;;;;;
2022/01/11 03:31:41;;;;;;;26.6;14.6;;;;;;;;;;;;;
2022/01/11 03:34:07;;;;;;;23;13.8;;;;;;;;;;;;;
2022/01/11 03:36:33;;;;;;;20.7;12.4;;;;;;;;;;;;;
2022/01/11 03:38:58;;;;;;;16.6;10.3;;;;;;;;;;;;;
2022/01/11 03:41:23;;;;;;;16.9;10.7;;;;;;;;;;;;;
2022/01/11 03:43:49;;;;;;;18.6;12.6;;;;;;;;;;;;;
2022/01/11 03:46:14;;;;;;;22.1;13.6;;;;;;;;;;;;;
2022/01/11 03:48:39;;;;;;;29.4;15.9;;;;;;;;;;;;;
2022/01/11 03:51:05;;;;;;;27.6;15.7;;;;;;;;;;;;;
2022/01/11 03:53:43;;;;;;;25;14.8;;;;;;;;;;;;;
2022/01/11 03:56:21;;;;;;;27.4;15.4;;;;;;;;;;;;;
2022/01/11 03:58:26;;;;;;;26.9;15;;;;;;;;;;;;;
2022/01/11 04:02:31;;;;;;;28.7;15.9;;;;;;;1.2;93.91504;946.8047;;;;
2022/01/11 04:04:57;;;;;;;29.9;17.2;;;;;;;1.17;94.7002;946.8077;;;;
2022/01/11 04:07:21;;;;;;;31.3;17.3;;;;;;;1.07;95.54004;946.798;;;;
2022/01/11 04:09:48;;;;;;;32.7;18.2;;;;;;;1.02;95.78418;946.8195;;;;
2022/01/11 04:12:13;;;;;;;34.2;17.3;;;;;;;0.97;96.39941;946.73;;;;
2022/01/11 04:14:43;;;;;;;33.3;17.7;;;;;;;0.86;97.43262;946.8347;;;;
2022/01/11 04:17:12;;;;;;;33.2;17.9;;;;;;;0.95;97.6123;946.853;;;;
2022/01/11 04:19:40;;;;;;;36.7;19.5;;;;;;;0.96;98.02734;946.837;;;;
2022/01/11 04:22:05;;;;;;;36;18.6;;;;;;;1.02;98.01758;946.8578;;;;
2022/01/11 04:24:35;;;;;;;35.9;18.3;;;;;;;1.06;97.92773;946.8407;;;;
2022/01/11 04:27:00;;;;;;;36;18.7;;;;;;;1.1;97.70313;946.8989;;;;
2022/01/11 04:29:27;;;;;;;35.1;18;;;;;;;1.06;97.52539;946.8723;;;;
2022/01/11 04:31:52;;;;;;;32.8;18.4;;;;;;;1.16;97.3252;946.8856;;;;
2022/01/11 04:34:19;;;;;;;31.8;18.1;;;;;;;1.28;96.65918;946.7863;;;;
2022/01/11 04:36:45;;;;;;;30.1;17.6;;;;;;;1.32;96.08887;946.9542;;;;
2022/01/11 04:39:14;;;;;;;32;16.7;;;;;;;1.27;95.8418;946.8814;;;;
2022/01/11 04:41:39;;;;;;;35;17.5;;;;;;;1.34;95.54492;946.8911;;;;
2022/01/11 04:44:08;;;;;;;34.5;17.7;;;;;;;1.4;95.41406;946.8497;;;;
2022/01/11 04:46:32;;;;;;;30.2;16.6;;;;;;;1.41;94.96875;946.9338;;;;
2022/01/11 04:49:01;;;;;;;30.8;16.9;;;;;;;1.33;95.10547;946.9153;;;;
2022/01/11 04:51:26;;;;;;;30.3;17.7;;;;;;;1.37;95.04785;946.9318;;;;
2022/01/11 04:53:54;;;;;;;30.7;16.9;;;;;;;1.35;94.93262;946.9263;;;;
2022/01/11 04:56:23;;;;;;;31.4;16.5;;;;;;;1.33;94.42773;946.9746;;;;
2022/01/11 04:58:48;;;;;;;30.6;16.1;;;;;;;1.33;94.46094;946.9856;;;;
2022/01/11 05:01:18;;;;;;;30.5;17.2;;;;;;;1.3;94.43066;946.9892;;;;
2022/01/11 05:03:43;;;;;;;32.5;17.2;;;;;;;1.26;94.85645;947.0003;;;;
2022/01/11 05:06:12;;;;;;;32.6;18;;;;;;;1.24;94.4834;946.9881;;;;
2022/01/11 05:08:37;;;;;;;32.5;17.4;;;;;;;1.25;94.09277;947.0659;;;;
2022/01/11 05:11:07;;;;;;;32;17;;;;;;;1.2;93.69141;947.0865;;;;
2022/01/11 05:13:38;;;;;;;35.4;18.6;;;;;;;1.15;94.18262;947.0355;;;;
2022/01/11 05:16:08;;;;;;;34.2;17.7;;;;;;;1.06;94.46582;947.1217;;;;
2022/01/11 05:18:32;;;;;;;36.3;17.9;;;;;;;1.05;94.74316;947.1547;;;;
2022/01/11 05:21:02;;;;;;;32.7;17.4;;;;;;;0.97;94.85645;947.1336;;;;
2022/01/11 05:23:33;;;;;;;30.6;16.9;;;;;;;1;94.93359;947.1401;;;;
2022/01/11 05:26:01;;;;;;;31.9;17.1;;;;;;;0.98;95.07227;947.1496;;;;
2022/01/11 05:28:31;;;;;;;30.7;17.1;;;;;;;1.01;94.74609;947.1799;;;;
2022/01/11 05:31:05;;;;;;;31.1;17;;;;;;;0.94;95.2207;947.1227;;;;
2022/01/11 05:33:34;;;;;;;33.5;17.5;;;;;;;0.91;96.34277;947.1447;;;;
2022/01/11 05:36:02;;;;;;;35.1;18.1;;;;;;;1.07;95.95313;947.1503;;;;
2022/01/11 05:38:34;;;;;;;29.9;16.6;;;;;;;1.15;95.2793;947.1566;;;;
2022/01/11 05:40:59;;;;;;;26.7;14.7;;;;;;;1.11;94.62109;947.207;;;;
2022/01/11 05:43:29;;;;;;;26.6;14.4;;;;;;;1.17;93.76367;947.127;;;;
2022/01/11 05:45:54;;;;;;;23.4;13.5;;;;;;;1.12;92.79297;947.1423;;;;
2022/01/11 05:48:23;;;;;;;23.4;13.4;;;;;;;1.03;91.85742;947.1482;;;;
2022/01/11 05:50:48;;;;;;;22.2;12.6;;;;;;;1.05;91.68262;947.3128;;;;
2022/01/11 05:53:16;;;;;;;19.6;11.4;;;;;;;1.16;91.12598;947.358;;;;
2022/01/11 05:55:47;;;;;;;17.5;10.9;;;;;;;1.24;90.4375;947.3127;;;;
2022/01/11 05:58:12;;;;;;;21.6;12.2;;;;;;;1.26;89.80664;947.4192;;;;
2022/01/11 06:00:38;;;;;;;30.6;17.2;;;;;;;1.08;90.70605;947.4279;;;;
2022/01/11 06:03:03;;;;;;;37.3;21.3;;;;;;;1.01;91.58594;947.5627;;;;
2022/01/11 06:05:37;;;;;;;31.5;22.1;;;;;;;1.1;91.50293;947.5261;;;;
2022/01/11 06:07:57;;;;;;;20.3;14;;;;;;;1.19;91.20996;947.5964;;;;
2022/01/11 06:10:22;;;;;;;18.9;12.3;;;;;;;1.27;90.22168;947.6517;;;;
2022/01/11 06:12:51;;;;;;;16.7;10.6;;;;;;;1.35;89.71387;947.6543;;;;
2022/01/11 06:15:21;;;;;;;13.5;8.9;;;;;;;1.38;89.30566;947.6786;;;;
2022/01/11 06:17:46;;;;;;;11.8;8.1;;;;;;;1.42;88.69922;947.7156;;;;
2022/01/11 06:20:14;;;;;;;13.6;8.2;;;;;;;1.48;88.66699;947.7145;;;;
2022/01/11 06:22:44;;;;;;;13.4;7.9;;;;;;;1.51;88.23926;947.7866;;;;
2022/01/11 06:25:09;;;;;;;14.4;8.4;;;;;;;1.51;87.94824;947.697;;;;
2022/01/11 06:27:42;;;;;;;15.1;9.5;;;;;;;1.36;88.57617;947.7877;;;;
2022/01/11 06:30:10;;;;;;;16.9;10.7;;;;;;;1.46;88.99902;947.923;;;;
2022/01/11 06:32:35;;;;;;;14.1;8.6;;;;;;;1.34;89.4209;947.9792;;;;
2022/01/11 06:35:04;;;;;;;17.3;8.9;;;;;;;1.3;89.65723;948.0433;;;;
2022/01/11 06:37:35;;;;;;;13;7.6;;;;;;;1.41;88.7998;948.1067;;;;
2022/01/11 06:40:02;;;;;;;12.1;7.3;;;;;;;1.49;87.91113;948.0999;;;;
2022/01/11 06:42:25;;;;;;;14.3;8.3;;;;;;;1.58;87.63672;948.1495;;;;
2022/01/11 06:44:54;;;;;;;12.8;7.8;;;;;;;1.62;86.8418;948.1767;;;;
2022/01/11 06:47:19;;;;;;;11.5;7.7;;;;;;;1.61;87.19727;948.2414;;;;
2022/01/11 06:49:45;;;;;;;12.5;7.5;;;;;;;1.65;86.80176;948.1973;;;;
2022/01/11 06:52:10;;;;;;;10.7;6.9;;;;;;;1.7;86.3418;948.1717;;;;
2022/01/11 06:54:36;;;;;;;12;7.6;;;;;;;1.58;86.83203;948.2274;;;;
2022/01/11 06:57:01;;;;;;;11.7;7;;;;;;;1.55;86.71289;948.2483;;;;
2022/01/11 06:59:28;;;;;;;16.8;7.3;;;;;;;1.47;86.4873;948.2612;;;;
2022/01/11 07:01:53;;;;;;;11.5;6.8;;;;;;;1.39;86.37988;948.2452;;;;
2022/01/11 07:04:23;;;;;;;12.4;7.5;;;;;;;1.25;86.89941;948.2294;;;;
2022/01/11 07:06:53;;;;;;;12.7;7.3;;;;;;;1.21;86.96875;948.2389;;;;
2022/01/11 07:09:24;;;;;;;10.1;6.8;;;;;;;1.19;86.88672;948.3541;;;;
2022/01/11 07:11:52;;;;;;;11.5;7.1;;;;;;;1.1;87.44824;948.4028;;;;
2022/01/11 07:14:17;;;;;;;11;7.1;;;;;;;1.03;88.00488;948.4421;;;;
2022/01/11 07:16:48;;;;;;;10.6;7.2;;;;;;;1.16;87.33887;948.4201;;;;
2022/01/11 07:19:11;;;;;;;12.7;7;;;;;;;1.25;86.9668;948.4604;;;;
2022/01/11 07:21:44;;;;;;;11.6;7.4;;;;;;;1.3;86.94434;948.4336;;;;
2022/01/11 07:24:07;;;;;;;12.5;7.9;;;;;;;1.36;86.69824;948.4957;;;;
2022/01/11 07:26:35;;;;;;;14.1;8.4;;;;;;;1.23;86.44922;948.5389;;;;
2022/01/11 07:29:03;;;;;;;16.2;8;;;;;;;1.16;86.70215;948.5452;;;;
2022/01/11 07:31:27;;;;;;;11.8;7.8;;;;;;;1.02;86.80664;948.5055;;;;
2022/01/11 07:33:56;;;;;;;10.8;7.4;;;;;;;1.1;85.66406;948.5198;;;;
2022/01/11 07:36:21;;;;;;;11.6;7.5;;;;;;;1.07;85.66699;948.5189;;;;
2022/01/11 07:38:48;;;;;;;12.7;8.5;;;;;;;1.25;85.41309;948.5025;;;;
2022/01/11 07:41:13;;;;;;;14.6;9.2;;;;;;;1.42;85.53613;948.4604;;;;
2022/01/11 07:43:39;;;;;;;15.3;9.1;;;;;;;1.61;85.01465;948.4877;;;;
2022/01/11 07:46:04;;;;;;;12.3;8.9;;;;;;;1.75;85.65918;948.5055;;;;
2022/01/11 07:48:30;;;;;;;15.2;9.1;;;;;;;1.97;84.95508;948.4324;;;;
2022/01/11 07:50:56;;;;;;;14.2;9.2;;;;;;;2.39;85.78906;948.4724;;;;
2022/01/11 07:53:23;;;;;;;11.8;8.3;;;;;;;2.85;82.62988;948.4407;;;;
2022/01/11 07:55:48;;;;;;;13.4;9.4;;;;;;;3.17;81.06348;948.4108;;;;
2022/01/11 07:58:14;;;;;;;13.8;9.1;;;;;;;3.76;77.7832;948.363;;;;
2022/01/11 08:00:39;;;;;;;15;9.3;;;;;;;4.44;74.38574;948.3744;;;;
2022/01/11 08:03:08;;;;;;;13.2;8.6;;;;;;;4.88;70.79883;948.2777;;;;
2022/01/11 08:05:33;;;;;;;13.2;8.6;;;;;;;5.22;69.69238;948.2891;;;;
2022/01/11 08:07:59;;;;;;;15.1;8.8;;;;;;;5.73;68.16309;948.3214;;;;
2022/01/11 08:10:24;;;;;;;13.5;8.5;;;;;;;6.49;65.59082;948.327;;;;
2022/01/11 08:12:54;;;;;;;17.4;8.8;;;;;;;6.64;63.39648;948.3296;;;;
2022/01/11 08:15:28;;;;;;;14.6;7.8;;;;;;;5.13;68.17871;948.4441;;;;
2022/01/11 08:17:53;;;;;;;12.1;7.8;;;;;;;5.73;65.67773;948.5069;;;;
2022/01/11 08:20:23;;;;;;;7.2;5.4;;;;;;;5.31;66.23438;948.5048;;;;
2022/01/11 08:22:53;;;;;;;8;5.1;;;;;;;5.85;63.94531;948.5463;;;;
2022/01/11 08:25:18;;;;;;;7.2;4.6;;;;;;;6.17;62.50391;948.5284;;;;
2022/01/11 08:27:47;;;;;;;8.1;5.3;;;;;;;6.88;60.81738;948.5452;;;;
2022/01/11 08:30:17;;;;;;;6.2;5;;;;;;;7.91;57.66113;948.5952;;;;
2022/01/11 08:32:46;;;;;;;4.9;3.7;;;;;;;9.53;52.77441;948.5492;;;;
2022/01/11 08:35:11;;;;;;;4.8;3.2;;;;;;;11.09;48.53027;948.5618;;;;
2022/01/11 08:37:39;;;;;;;4.1;3;;;;;;;12.15;44.27051;948.4791;;;;
2022/01/11 08:40:04;;;;;;;4.9;2.9;;;;;;;11.29;43.51953;948.594;;;;
2022/01/11 08:42:33;;;;;;;3.9;3;;;;;;;9.37;47.52832;948.6586;;;;
2022/01/11 08:45:00;;;;;;;4.9;3.5;;;;;;;7.43;53.19727;948.7145;;;;
2022/01/11 08:47:30;;;;;;;6.1;4.1;;;;;;;6.48;56.99316;948.7468;;;;
2022/01/11 08:49:51;;;;;;;13.5;8.3;;;;;;;5.72;62.43652;948.692;;;;
2022/01/11 08:52:16;;;;;;;7.6;6.4;;;;;;;5.71;63.33691;948.6859;;;;
2022/01/11 08:54:44;;;;;;;8;6.2;;;;;;;5.43;62.75488;948.7072;;;;
2022/01/11 08:57:09;;;;;;;9.8;6.9;;;;;;;4.99;63.68066;948.7411;;;;
2022/01/11 08:59:37;;;;;;;9.1;6.7;;;;;;;4.16;66.75391;948.6606;;;;
2022/01/11 09:02:02;;;;;;;11.1;7.4;;;;;;;3.76;69.0625;948.7253;;;;
2022/01/11 09:04:28;;;;;;;11.2;7.9;;;;;;;3.28;72.37305;948.7341;;;;
2022/01/11 09:06:58;;;;;;;10.1;7.1;;;;;;;3.55;74.05957;948.7533;;;;
2022/01/11 09:09:21;;;;;;;11.6;7.9;;;;;;;3.99;72.69727;948.6768;;;;
2022/01/11 09:11:47;;;;;;;13.9;10.3;;;;;;;4.16;72.74902;948.7786;;;;
2022/01/11 09:14:12;;;;;;;16;10.4;;;;;;;4.06;72.51855;948.7636;;;;
2022/01/11 09:16:38;;;;;;;13.8;9.2;;;;;;;4.1;72.5918;948.8521;;;;
2022/01/11 09:19:04;;;;;;;16;10.3;;;;;;;4.03;72.66895;948.7609;;;;
2022/01/11 09:21:29;;;;;;;11;8;;;;;;;3.98;72.30371;948.8144;;;;
2022/01/11 09:24:00;;;;;;;13.1;8.8;;;;;;;4.04;73.11133;948.6497;;;;
2022/01/11 09:26:25;;;;;;;13.6;9.3;;;;;;;4.23;71.82617;948.7642;;;;
2022/01/11 09:28:55;;;;;;;8.9;6.7;;;;;;;4.3;70.56641;948.7472;;;;
2022/01/11 09:31:29;;;;;;;9.5;6.9;;;;;;;4.32;70.40234;948.7255;;;;
2022/01/11 09:33:55;;;;;;;8.9;6.4;;;;;;;3.97;70.89453;948.7019;;;;
2022/01/11 09:36:20;;;;;;;7.5;5.5;;;;;;;3.76;71.72559;948.7523;;;;
2022/01/11 09:38:48;;;;;;;7.2;5.7;;;;;;;3.57;72.73828;948.7947;;;;
2022/01/11 09:41:13;;;;;;;8.2;6.3;;;;;;;3.61;73.19434;948.8137;;;;
2022/01/11 09:43:39;;;;;;;7.4;5.9;;;;;;;3.35;72.55371;948.7835;;;;
2022/01/11 09:46:04;;;;;;;9.1;7;;;;;;;3.34;73.78711;948.7729;;;;
2022/01/11 09:48:33;;;;;;;7.7;5.8;;;;;;;2.67;74.51172;948.7662;;;;
2022/01/11 09:50:58;;;;;;;6.8;5.2;;;;;;;2.5;75.52441;948.8145;;;;
2022/01/11 09:53:25;;;;;;;7.4;5.4;;;;;;;2.74;74.92871;948.7473;;;;
2022/01/11 09:55:50;;;;;;;7.9;5.3;;;;;;;2.79;75.49707;948.7485;;;;
2022/01/11 09:58:16;;;;;;;6.5;5.1;;;;;;;2.91;74.11719;948.8295;;;;
2022/01/11 10:00:41;;;;;;;5.5;4.4;;;;;;;3.02;72.375;948.8391;;;;
2022/01/11 10:03:07;;;;;;;6.3;4.8;;;;;;;3.06;73.68457;948.8088;;;;
2022/01/11 10:05:33;;;;;;;10.6;7.9;;;;;;;2.83;74.77637;948.9294;;;;
2022/01/11 10:08:00;;;;;;;10.9;8;;;;;;;2.64;75.98535;948.9382;;;;
2022/01/11 10:10:26;;;;;;;10.5;7.6;;;;;;;2.69;75.42383;948.9573;;;;
2022/01/11 10:12:55;;;;;;;12.4;8.1;;;;;;;2.6;76.00098;948.9057;;;;
2022/01/11 10:15:23;;;;;;;11.7;8.2;;;;;;;2.53;76.73926;949.0401;;;;
2022/01/11 10:17:48;;;;;;;13.3;8.8;;;;;;;2.58;76.80664;949.0449;;;;
2022/01/11 10:20:20;;;;;;;15;9.8;;;;;;;2.59;76.64063;949.0683;;;;
2022/01/11 10:22:43;;;;;;;14.6;9.5;;;;;;;2.63;76.68066;949.0588;;;;
2022/01/11 10:25:11;;;;;;;12.9;9.3;;;;;;;2.53;76.99707;949.0134;;;;
2022/01/11 10:27:36;;;;;;;12.5;9.4;;;;;;;2.47;77.71582;949.0284;;;;
2022/01/11 10:30:03;;;;;;;15.3;9.4;;;;;;;2.43;78.62793;948.9397;;;;
2022/01/11 10:32:30;;;;;;;13.1;8.9;;;;;;;2.51;78.41699;948.9009;;;;
2022/01/11 10:34:56;;;;;;;16;10.1;;;;;;;2.63;78.78809;948.8803;;;;
2022/01/11 10:37:21;;;;;;;16.6;10.3;;;;;;;2.53;78.80078;948.8812;;;;
2022/01/11 10:39:46;;;;;;;17;10.9;;;;;;;2.59;78.93652;948.8454;;;;
2022/01/11 10:42:14;;;;;;;18.2;11.5;;;;;;;2.53;79.20605;948.8359;;;;
2022/01/11 10:44:37;;;;;;;17.2;11.1;;;;;;;2.4;79.18066;948.8973;;;;
2022/01/11 10:47:02;;;;;;;17.4;11.2;;;;;;;2.35;80.14551;948.8071;;;;
2022/01/11 10:49:27;;;;;;;16.6;11.4;;;;;;;2.44;79.50293;948.7941;;;;
2022/01/11 10:51:53;;;;;;;14.5;10.2;;;;;;;2.57;79.22461;948.7964;;;;
2022/01/11 10:54:19;;;;;;;14.7;9.9;;;;;;;2.71;78.7002;948.7729;;;;
2022/01/11 10:56:45;;;;;;;14.5;10.1;;;;;;;2.75;78.32715;948.784;;;;
2022/01/11 10:59:12;;;;;;;14;9.4;;;;;;;2.64;78.19336;948.8517;;;;
2022/01/11 11:02:26;;;;;;;12;9;;;;;;;2.64;78.41895;948.8772;;;;
2022/01/11 11:04:55;;;;;;;13.6;9.1;;;;;;;2.68;79.22363;948.8558;;;;
2022/01/11 11:07:23;;;;;;;11.8;8.3;;;;;;;2.7;78.80078;948.79;;;;
2022/01/11 11:09:45;;;;;;;14.5;10.1;;;;;;;2.6;79.21777;948.7422;;;;
2022/01/11 11:12:13;;;;;;;13.6;9.5;;;;;;;2.66;79.05078;948.6978;;;;
2022/01/11 11:14:38;;;;;;;14.6;9.9;;;;;;;2.73;78.97461;948.7631;;;;
2022/01/11 11:17:03;;;;;;;13.6;9.5;;;;;;;2.62;79.2998;948.7112;;;;
2022/01/11 11:19:28;;;;;;;13.8;9;;;;;;;2.68;78.81836;948.7486;;;;
2022/01/11 11:21:55;;;;;;;13.9;9.5;;;;;;;2.78;78.17578;948.7219;;;;
2022/01/11 11:24:21;;;;;;;12.9;9.2;;;;;;;2.87;77.74316;948.6611;;;;
2022/01/11 11:26:49;;;;;;;13.7;9.3;;;;;;;2.77;78.46484;948.7001;;;;
2022/01/11 11:29:14;;;;;;;13.1;8.9;;;;;;;2.86;78.03516;948.6852;;;;
2022/01/11 11:31:41;;;;;;;12.5;7.7;;;;;;;2.78;78.1543;948.7079;;;;
2022/01/11 11:34:07;;;;;;;12.6;8.6;;;;;;;2.82;77.83398;948.6181;;;;
2022/01/11 11:36:33;;;;;;;12.2;8.8;;;;;;;2.91;77.8418;948.7269;;;;
2022/01/11 11:38:58;;;;;;;12.2;8.6;;;;;;;2.89;77.97266;948.7333;;;;
2022/01/11 11:41:23;;;;;;;11.9;8.6;;;;;;;3.03;78.40137;948.7213;;;;
2022/01/11 11:43:49;;;;;;;10.9;8;;;;;;;3.2;77.34473;948.7366;;;;
2022/01/11 11:46:14;;;;;;;12.1;8.7;;;;;;;3.26;76.53613;948.7389;;;;
2022/01/11 11:48:40;;;;;;;11.5;8.6;;;;;;;3.35;76.31543;948.7341;;;;
2022/01/11 11:51:05;;;;;;;10.9;8.1;;;;;;;3.63;76.02832;948.8004;;;;
2022/01/11 11:53:34;;;;;;;11.6;9;;;;;;;3.47;75.94434;948.8195;;;;
2022/01/11 11:56:04;;;;;;;10.7;7.8;;;;;;;3.64;75.77148;948.7357;;;;
2022/01/11 11:58:31;;;;;;;10.6;7.4;;;;;;;3.89;73.87305;948.8169;;;;
2022/01/11 12:00:53;;;;;;;10.8;7.7;;;;;;;3.94;74.00293;948.9185;;;;
2022/01/11 12:03:16;;;;;;;10.3;7.2;;;;;;;3.91;74.97852;948.9125;;;;
2022/01/11 12:05:46;;;;;;;10;7.5;;;;;;;3.85;74.93359;948.8917;;;;
2022/01/11 12:08:13;;;;;;;9.4;6.7;;;;;;;4.22;73.0957;948.9119;;;;
2022/01/11 12:10:38;;;;;;;9.4;7.2;;;;;;;4.5;71.98535;948.9389;;;;
2022/01/11 12:13:06;;;;;;;9.3;7;;;;;;;4.43;71.32031;948.9331;;;;
2022/01/11 12:15:34;;;;;;;9.7;6.6;;;;;;;4.44;71.32324;948.8596;;;;
2022/01/11 12:18:02;;;;;;;9.6;6.5;;;;;;;4.33;71.4834;948.9183;;;;
2022/01/11 12:20:30;;;;;;;8.2;6.2;;;;;;;4.41;70.66504;948.8467;;;;
2022/01/11 12:22:58;;;;;;;10.4;7;;;;;;;4.49;70.95996;948.9078;;;;
2022/01/11 12:25:50;;;;;;;9.7;6.9;;;;;;;4.25;72.5957;948.9877;;;;
2022/01/11 12:28:15;;;;;;;9.3;6.7;;;;;;;4.27;70.41602;948.9689;;;;
2022/01/11 12:30:41;;;;;;;8.8;6.5;;;;;;;4.45;70.82813;948.9355;;;;
2022/01/11 12:33:06;;;;;;;8.3;6.4;;;;;;;4.62;70.11328;949.0261;;;;
2022/01/11 12:35:34;;;;;;;11.6;7.2;;;;;;;4.82;69.45898;949.0164;;;;
2022/01/11 12:37:59;;;;;;;8.4;6.5;;;;;;;4.94;68.9834;949.0399;;;;
2022/01/11 12:40:26;;;;;;;8.7;6.7;;;;;;;5.08;68.37402;949.0511;;;;
2022/01/11 12:42:52;;;;;;;8.9;6.7;;;;;;;5.15;67.15625;949.0522;;;;
2022/01/11 12:47:46;;;;;;;7.2;5.6;;;;;;;5.15;66.52539;949.0806;;;;
2022/01/11 12:50:11;;;;;;;8.1;5.8;;;;;;;4.99;66.41113;949.1353;;;;
2022/01/11 12:52:38;;;;;;;7.4;5.9;;;;;;;4.86;67.80957;949.1316;;;;
2022/01/11 12:55:05;;;;;;;10.4;5.9;;;;;;;4.84;67.34473;949.1107;;;;
2022/01/11 12:57:33;;;;;;;7.5;5.6;;;;;;;5.04;67.30762;949.1378;;;;
2022/01/11 12:59:56;;;;;;;7.8;6.2;;;;;;;5.09;67.10156;949.1696;;;;
2022/01/11 13:02:23;;;;;;;9.2;6.1;;;;;;;5.09;67.06641;949.1873;;;;
2022/01/11 13:04:48;;;;;;;9.1;6.8;;;;;;;4.05;70.37012;949.1808;;;;
2022/01/11 13:07:15;;;;;;;9.5;6.9;;;;;;;4.42;70.19336;949.0806;;;;
2022/01/11 13:09:41;;;;;;;9.1;6.8;;;;;;;4.49;69.67578;949.0756;;;;
2022/01/11 13:12:06;;;;;;;9.2;7.1;;;;;;;4.38;70.69238;948.983;;;;
2022/01/11 13:14:41;;;;;;;9.5;7.5;;;;;;;4.61;69.71777;949.0637;;;;
2022/01/11 13:17:00;;;;;;;11;7.7;;;;;;;4.74;69.69336;949.0336;;;;
2022/01/11 13:19:25;;;;;;;10.7;7.6;;;;;;;4.48;70.13477;949.1096;;;;
2022/01/11 13:21:53;;;;;;;11.2;7.9;;;;;;;4.52;70.06348;949.1055;;;;
2022/01/11 13:24:25;;;;;;;12.1;8.1;;;;;;;4.46;70.54785;949.0385;;;;
2022/01/11 13:26:43;;;;;;;12.4;8.7;;;;;;;4.24;71.83984;949.1049;;;;
2022/01/11 13:29:09;;;;;;;11.9;8.7;;;;;;;4.36;71.9502;949.0411;;;;
2022/01/11 13:31:36;;;;;;;13.4;9.2;;;;;;;4.33;72.03418;948.9891;;;;
2022/01/11 13:34:02;;;;;;;11.9;8.7;;;;;;;4.32;72.34863;949.0377;;;;
2022/01/11 13:36:30;;;;;;;13;9.4;;;;;;;4.2;72.40625;949.0754;;;;
2022/01/11 13:38:55;;;;;;;11.8;9.2;;;;;;;4.35;71.53223;949.025;;;;
2022/01/11 13:41:23;;;;;;;15.6;9.6;;;;;;;3.65;73.58398;949.0623;;;;
2022/01/11 13:43:48;;;;;;;15.1;10.2;;;;;;;3.47;73.85547;949.0778;;;;
2022/01/11 13:46:13;;;;;;;14.3;9.8;;;;;;;3.32;75.24414;949.0338;;;;
2022/01/11 13:48:38;;;;;;;14.4;9.8;;;;;;;3.32;75.54883;949.012;;;;
2022/01/11 13:51:08;;;;;;;12.1;9.5;;;;;;;3.29;75.59961;949.0506;;;;
2022/01/11 13:53:36;;;;;;;15.9;10.3;;;;;;;2.9;77.6377;949.0664;;;;
2022/01/11 13:56:05;;;;;;;13.9;10;;;;;;;3.26;76.89551;949.0034;;;;
2022/01/11 13:58:31;;;;;;;14.2;9.4;;;;;;;3.55;75.67871;949.0535;;;;
2022/01/11 14:00:56;;;;;;;13.3;10.1;;;;;;;3.42;75.7334;949.0584;;;;
2022/01/11 14:03:21;;;;;;;13.8;9.3;;;;;;;3.4;75.44922;949.0919;;;;
2022/01/11 14:05:54;;;;;;;14.2;9.8;;;;;;;3.32;74.96484;949.0419;;;;
2022/01/11 14:08:17;;;;;;;14.1;10;;;;;;;3.22;75.79883;949.041;;;;
2022/01/11 14:10:53;;;;;;;15.1;10.6;;;;;;;3.02;76.77246;949.0782;;;;
2022/01/11 14:13:08;;;;;;;13.8;10;;;;;;;3;77.07129;949.0167;;;;
2022/01/11 14:15:38;;;;;;;13.7;9.3;;;;;;;2.96;76.91992;949.1318;;;;
2022/01/11 14:18:07;;;;;;;14;10.1;;;;;;;2.84;77.58105;949.1429;;;;
2022/01/11 14:20:37;;;;;;;14;9.9;;;;;;;2.98;76.98926;949.1005;;;;
2022/01/11 14:23:02;;;;;;;13.6;9.3;;;;;;;2.88;76.53418;949.0628;;;;
2022/01/11 14:25:31;;;;;;;12.9;8.8;;;;;;;2.93;76.16211;949.0477;;;;
2022/01/11 14:27:56;;;;;;;13.6;9;;;;;;;2.93;76.49902;949.0678;;;;
2022/01/11 14:30:21;;;;;;;13.5;8.9;;;;;;;2.72;76.64063;949.0994;;;;
2022/01/11 14:32:46;;;;;;;12.4;9.3;;;;;;;2.66;77.06641;949.1003;;;;
2022/01/11 14:35:16;;;;;;;12.7;9.4;;;;;;;2.72;77.66992;948.978;;;;
2022/01/11 14:37:41;;;;;;;13.4;9.5;;;;;;;2.85;77.66113;949.091;;;;
2022/01/11 14:40:07;;;;;;;13.5;9.6;;;;;;;2.86;76.83301;949.171;;;;
2022/01/11 14:42:32;;;;;;;14.2;9.7;;;;;;;2.81;77.20508;949.0974;;;;
2022/01/11 14:44:57;;;;;;;14.2;9.5;;;;;;;2.67;77.61719;949.1696;;;;
2022/01/11 14:47:22;;;;;;;13.8;9.8;;;;;;;2.79;77.37012;949.188;;;;
2022/01/11 14:49:47;;;;;;;13.5;9.4;;;;;;;2.77;77.4668;949.1384;;;;
2022/01/11 14:52:17;;;;;;;14.2;9.7;;;;;;;2.86;77.50586;949.1803;;;;
2022/01/11 14:54:39;;;;;;;13.4;9.7;;;;;;;2.95;77.01758;949.1306;;;;
2022/01/11 14:57:05;;;;;;;13.4;9.2;;;;;;;2.92;77.04688;949.0683;;;;
2022/01/11 14:59:30;;;;;;;15;10.4;;;;;;;2.88;77.29785;949.0851;;;;
2022/01/11 15:01:59;;;;;;;18.6;12;;;;;;;2.9;76.96484;949.0831;;;;
2022/01/11 15:04:24;;;;;;;15.6;11.3;;;;;;;2.58;78.12793;949.1351;;;;
2022/01/11 15:06:49;;;;;;;29.5;18.5;;;;;;;2.67;78.17969;949.1918;;;;
2022/01/11 15:09:15;;;;;;;16.9;12.1;;;;;;;2.77;77.88184;949.1828;;;;
2022/01/11 15:11:40;;;;;;;16.1;11.6;;;;;;;2.8;77.33887;949.2033;;;;
2022/01/11 15:14:09;;;;;;;15;11.1;;;;;;;2.73;77.84375;949.2346;;;;
2022/01/11 15:16:34;;;;;;;15.4;10.8;;;;;;;2.53;78.76953;949.2794;;;;
2022/01/11 15:19:04;;;;;;;13.9;10.5;;;;;;;2.57;78.6875;949.2999;;;;
2022/01/11 15:21:34;;;;;;;15.6;10.8;;;;;;;2.47;78.8252;949.3444;;;;
2022/01/11 15:23:58;;;;;;;13.9;10.7;;;;;;;2.27;79.96387;949.3811;;;;
2022/01/11 15:26:25;;;;;;;16.7;11.4;;;;;;;2.24;79.86914;949.3765;;;;
2022/01/11 15:28:50;;;;;;;16.2;11.2;;;;;;;2.27;79.61621;949.4037;;;;
2022/01/11 15:31:15;;;;;;;18.4;12.6;;;;;;;2.1;80.00977;949.4339;;;;